Time;durP1;ratioP1;P1;durP2;ratioP2;P2;SDS_P1;SDS_P2;PMS_P1;PMS_P2;Temp;Humidity;BMP_temperature;BMP_pressure;BME280_temperature;BME280_humidity;BME280_pressure;Samples;Min_cycle;Max_cycle;Signal;HPM_P1;HPM_P2
2021/08/09 00:02:16;;;;;;;11.48;8.10;;;;;;;;;;4899039;29;20294;-90
2021/08/09 00:04:42;;;;;;;8.95;7.50;;;;;;;;;;4897535;29;20189;-91
2021/08/09 00:07:10;;;;;;;10.57;8.23;;;18.00;99.90;;;;;;4897329;29;20633;-91
2021/08/09 00:09:36;;;;;;;10.77;8.18;;;;;;;;;;4897430;29;20630;-91
2021/08/09 00:12:02;;;;;;;11.48;7.80;;;;;;;;;;4897882;29;20199;-91
2021/08/09 00:14:28;;;;;;;11.63;8.48;;;18.00;99.90;;;;;;4897586;29;20189;-91
2021/08/09 00:16:55;;;;;;;12.27;8.23;;;;;;;;;;4897520;29;20212;-91
2021/08/09 00:19:26;;;;;;;10.07;7.78;;;;;;;;;;4897718;29;20236;-91
2021/08/09 00:21:54;;;;;;;11.32;8.27;;;;;;;;;;4899986;29;20181;-91
2021/08/09 00:24:20;;;;;;;11.15;8.52;;;;;;;;;;4902004;29;20185;-90
2021/08/09 00:26:46;;;;;;;12.60;8.32;;;;;;;;;;4903217;29;20189;-92
2021/08/09 00:29:15;;;;;;;10.55;8.18;;;;;;;;;;4901061;29;20264;-90
2021/08/09 00:31:41;;;;;;;11.40;8.25;;;;;;;;;;4900963;29;20535;-90
2021/08/09 00:34:07;;;;;;;11.15;8.35;;;;;;;;;;4900663;29;20252;-90
2021/08/09 00:36:33;;;;;;;10.05;7.68;;;;;;;;;;4900879;29;20185;-91
2021/08/09 00:38:59;;;;;;;10.50;7.88;;;;;;;;;;4900642;29;20559;-91
2021/08/09 00:41:26;;;;;;;9.95;8.18;;;;;;;;;;4900833;29;20200;-91
2021/08/09 00:43:52;;;;;;;10.63;7.75;;;;;;;;;;4900580;29;20181;-91
2021/08/09 00:46:18;;;;;;;15.80;8.60;;;;;;;;;;4900710;29;20212;-90
2021/08/09 00:48:44;;;;;;;11.38;7.60;;;;;;;;;;4900794;29;20185;-89
2021/08/09 00:51:13;;;;;;;11.52;8.23;;;17.80;99.90;;;;;;4900296;29;20192;-90
2021/08/09 00:53:39;;;;;;;13.65;8.40;;;17.80;99.90;;;;;;4900352;29;20232;-90
2021/08/09 00:56:10;;;;;;;12.38;8.15;;;;;;;;;;4901220;29;20646;-91
2021/08/09 00:58:37;;;;;;;9.50;8.20;;;17.80;99.90;;;;;;4900597;29;20214;-92
2021/08/09 01:01:03;;;;;;;11.65;8.57;;;;;;;;;;4899754;29;20627;-91
2021/08/09 01:03:29;;;;;;;9.55;8.30;;;;;;;;;;4900606;29;20213;-90
2021/08/09 01:05:55;;;;;;;10.88;8.18;;;;;;;;;;4884647;29;20255;-90
2021/08/09 01:08:31;;;;;;;12.30;8.20;;;;;;;;;;4900522;29;20177;-90
2021/08/09 01:11:00;;;;;;;11.63;8.55;;;;;;;;;;4900189;29;20236;-90
2021/08/09 01:13:43;;;;;;;13.07;7.47;;;17.90;99.90;;;;;;4899829;29;20181;-90
2021/08/09 01:16:11;;;;;;;11.27;8.23;;;;;;;;;;4899957;29;20181;-91
2021/08/09 01:18:38;;;;;;;9.23;8.18;;;;;;;;;;4899748;29;20602;-90
2021/08/09 01:21:05;;;;;;;12.82;8.35;;;;;;;;;;4900795;29;20205;-90
2021/08/09 01:23:34;;;;;;;12.32;8.52;;;;;;;;;;4900220;29;20181;-90
2021/08/09 01:26:09;;;;;;;11.27;8.07;;;17.80;99.90;;;;;;4900777;29;20255;-90
2021/08/09 01:28:36;;;;;;;8.90;7.93;;;;;;;;;;4900348;29;20272;-90
2021/08/09 01:31:02;;;;;;;10.63;7.57;;;;;;;;;;4899840;29;20209;-91
2021/08/09 01:33:36;;;;;;;9.68;6.70;;;17.60;99.90;;;;;;4898484;29;20214;-91
2021/08/09 01:36:04;;;;;;;10.98;7.57;;;17.50;99.90;;;;;;4899634;29;20183;-91
2021/08/09 01:38:32;;;;;;;10.57;6.43;;;17.50;99.90;;;;;;4899341;29;20186;-90
2021/08/09 01:40:58;;;;;;;7.93;6.72;;;;;;;;;;4899288;29;20189;-92
2021/08/09 01:43:29;;;;;;;7.60;6.60;;;17.40;99.90;;;;;;4900585;29;20181;-91
2021/08/09 01:45:59;;;;;;;11.20;5.93;;;;;;;;;;4901069;29;20186;-94
2021/08/09 01:48:27;;;;;;;6.72;5.75;;;17.40;99.90;;;;;;4900837;29;20193;-92
2021/08/09 01:50:53;;;;;;;8.35;6.47;;;;;;;;;;4899796;29;20237;-92
2021/08/09 01:53:22;;;;;;;10.02;7.32;;;;;;;;;;4899476;29;20212;-92
2021/08/09 01:55:49;;;;;;;10.82;7.60;;;;;;;;;;4899876;29;20187;-92
2021/08/09 01:58:18;;;;;;;12.23;6.70;;;17.40;99.90;;;;;;4899049;29;20358;-92
2021/08/09 02:00:44;;;;;;;11.32;6.35;;;;;;;;;;4899508;29;20209;-91
2021/08/09 02:03:10;;;;;;;7.68;6.38;;;;;;;;;;4899360;29;20213;-91
2021/08/09 02:05:37;;;;;;;7.80;5.95;;;;;;;;;;4900516;29;20173;-90
2021/08/09 02:08:03;;;;;;;15.65;6.05;;;;;;;;;;4898980;29;20189;-91
2021/08/09 02:10:32;;;;;;;8.68;5.53;;;;;;;;;;4899400;29;20193;-91
2021/08/09 02:13:18;;;;;;;11.05;5.22;;;17.00;99.90;;;;;;4898856;29;20185;-92
2021/08/09 02:15:58;;;;;;;8.02;5.53;;;17.00;99.90;;;;;;4899341;29;20181;-91
2021/08/09 02:18:36;;;;;;;6.32;5.25;;;16.90;99.90;;;;;;4899030;29;20236;-91
2021/08/09 02:21:04;;;;;;;5.35;4.65;;;;;;;;;;4899031;29;20577;-92
2021/08/09 02:23:56;;;;;;;5.93;4.50;;;;;;;;;;4898979;29;20730;-91
2021/08/09 02:26:33;;;;;;;8.27;4.88;;;16.80;99.90;;;;;;4897441;29;20193;-91
2021/08/09 02:29:07;;;;;;;6.57;5.05;;;16.80;99.90;;;;;;4883901;29;20646;-91
2021/08/09 02:31:38;;;;;;;5.82;4.50;;;16.70;99.90;;;;;;4899076;29;20260;-92
2021/08/09 02:34:14;;;;;;;6.20;4.22;;;16.70;99.90;;;;;;4899001;29;20185;-92
2021/08/09 02:36:41;;;;;;;8.30;5.00;;;;;;;;;;4899231;29;20650;-91
2021/08/09 02:39:07;;;;;;;7.35;4.70;;;;;;;;;;4883302;29;20698;-91
2021/08/09 02:41:34;;;;;;;4.75;4.15;;;;;;;;;;4899086;29;20185;-91
2021/08/09 02:44:02;;;;;;;7.45;5.03;;;;;;;;;;4898396;29;20189;-91
2021/08/09 02:46:28;;;;;;;4.97;4.35;;;;;;;;;;4898597;29;20265;-91
2021/08/09 02:48:55;;;;;;;5.50;4.35;;;;;;;;;;4898718;29;20192;-91
2021/08/09 02:51:29;;;;;;;6.38;4.97;;;16.60;99.90;;;;;;4898697;29;20623;-90
2021/08/09 02:53:55;;;;;;;6.95;4.60;;;;;;;;;;4898740;29;20195;-91
2021/08/09 02:56:33;;;;;;;8.35;4.68;;;16.60;99.90;;;;;;4898351;29;20185;-90
2021/08/09 02:58:59;;;;;;;5.68;4.53;;;;;;;;;;4884086;29;20208;-91
2021/08/09 03:01:27;;;;;;;5.22;4.72;;;16.50;99.90;;;;;;4909035;29;20217;-90
2021/08/09 03:03:58;;;;;;;8.32;4.90;;;16.50;99.90;;;;;;4912764;29;20188;-90
2021/08/09 03:06:32;;;;;;;5.97;5.20;;;;;;;;;;4911305;29;20193;-93
2021/08/09 03:08:58;;;;;;;7.60;5.25;;;;;;;;;;4900067;29;20196;-91
2021/08/09 03:11:25;;;;;;;7.90;5.50;;;;;;;;;;4898766;29;20200;-91
2021/08/09 03:13:51;;;;;;;10.18;5.22;;;;;;;;;;4898384;29;20276;-92
2021/08/09 03:16:17;;;;;;;11.07;4.97;;;;;;;;;;4899535;29;20177;-90
2021/08/09 03:18:43;;;;;;;6.88;5.35;;;;;;;;;;4898353;29;20710;-90
2021/08/09 03:21:09;;;;;;;9.60;5.32;;;;;;;;;;4898589;29;20190;-91
2021/08/09 03:23:39;;;;;;;18.90;6.25;;;;;;;;;;4898590;29;20189;-92
2021/08/09 03:26:05;;;;;;;8.13;4.72;;;;;;;;;;4899768;29;20181;-91
2021/08/09 03:28:31;;;;;;;6.22;5.05;;;;;;;;;;4898580;29;20192;-91
2021/08/09 03:30:59;;;;;;;8.05;5.80;;;;;;;;;;4898262;29;20205;-92
2021/08/09 03:33:25;;;;;;;7.95;5.50;;;;;;;;;;4898619;29;20193;-91
2021/08/09 03:35:51;;;;;;;7.53;5.07;;;;;;;;;;4899060;29;20177;-91
2021/08/09 03:38:20;;;;;;;9.82;5.65;;;;;;;;;;4905266;29;20169;-91
2021/08/09 03:40:57;;;;;;;6.38;4.82;;;;;;;;;;4922406;29;20219;-90
2021/08/09 03:43:26;;;;;;;5.85;4.85;;;;;;;;;;4922325;29;20173;-91
2021/08/09 03:45:52;;;;;;;7.35;4.75;;;;;;;;;;4922212;29;20201;-91
2021/08/09 03:48:26;;;;;;;8.27;5.30;;;;;;;;;;4922108;29;20177;-90
2021/08/09 03:51:01;;;;;;;9.35;5.57;;;;;;;;;;4907420;29;20174;-92
2021/08/09 03:53:35;;;;;;;6.15;5.20;;;;;;;;;;4922348;29;20171;-91
2021/08/09 03:56:09;;;;;;;5.25;4.75;;;;;;;;;;4921468;29;20188;-90
2021/08/09 03:58:49;;;;;;;5.60;4.80;;;;;;;;;;4907233;29;20169;-91
2021/08/09 04:01:17;;;;;;;7.30;5.20;;;;;;;;;;4922000;29;20177;-92
2021/08/09 04:03:49;;;;;;;7.35;5.88;;;;;;;;;;4922136;29;20180;-89
2021/08/09 04:06:18;;;;;;;10.98;5.18;;;;;;;;;;4921980;29;20197;-93
2021/08/09 04:08:53;;;;;;;10.90;6.15;;;;;;;;;;4906467;29;20186;-91
2021/08/09 04:11:19;;;;;;;7.72;6.22;;;;;;;;;;4921706;29;20177;-91
2021/08/09 04:13:48;;;;;;;6.90;5.88;;;;;;;;;;4921599;29;20189;-90
2021/08/09 04:16:16;;;;;;;9.48;6.53;;;;;;;;;;4905161;29;20169;-91
2021/08/09 04:19:02;;;;;;;8.63;6.90;;;;;;;;;;4901015;29;20239;-91
2021/08/09 04:21:28;;;;;;;8.10;6.63;;;;;;;;;;4900981;29;20197;-91
2021/08/09 04:23:54;;;;;;;9.23;6.60;;;;;;;;;;4901182;29;20212;-90
2021/08/09 04:26:21;;;;;;;9.88;6.70;;;;;;;;;;4900529;29;20340;-90
2021/08/09 04:28:47;;;;;;;10.68;6.68;;;;;;;;;;4901971;29;20555;-90
2021/08/09 04:31:13;;;;;;;11.00;6.95;;;;;;;;;;4901751;29;20181;-90
2021/08/09 04:33:43;;;;;;;11.52;7.05;;;;;;;;;;4884670;29;20297;-89
2021/08/09 04:36:10;;;;;;;10.93;7.15;;;;;;;;;;4901948;29;20246;-90
2021/08/09 04:38:36;;;;;;;7.97;6.40;;;;;;;;;;4900556;29;20181;-89
2021/08/09 04:41:09;;;;;;;10.48;6.97;;;16.40;99.90;;;;;;4902668;29;20194;-90
2021/08/09 04:43:37;;;;;;;8.80;6.90;;;;;;;;;;4902170;29;20272;-90
2021/08/09 04:46:04;;;;;;;9.40;6.55;;;;;;;;;;4887005;29;20188;-89
2021/08/09 04:48:30;;;;;;;12.45;6.75;;;;;;;;;;4900935;29;20208;-90
2021/08/09 04:50:56;;;;;;;9.73;6.82;;;;;;;;;;4902030;29;20686;-89
2021/08/09 04:53:22;;;;;;;10.10;7.40;;;;;;;;;;4901619;29;20256;-90
2021/08/09 04:55:49;;;;;;;11.82;6.97;;;;;;;;;;4899498;29;20651;-90
2021/08/09 04:58:15;;;;;;;11.43;6.45;;;;;;;;;;4899210;29;20181;-91
2021/08/09 05:00:41;;;;;;;8.73;7.15;;;;;;;;;;4899557;29;20201;-89
2021/08/09 05:03:07;;;;;;;13.10;10.00;;;;;;;;;;4899139;29;20189;-90
2021/08/09 05:05:33;;;;;;;9.40;6.75;;;;;;;;;;4898913;29;20189;-90
2021/08/09 05:07:59;;;;;;;11.77;6.50;;;;;;;;;;4900405;29;20189;-90
2021/08/09 05:10:26;;;;;;;13.75;6.88;;;16.50;99.90;;;;;;4903251;29;20233;-90
2021/08/09 05:12:52;;;;;;;11.45;6.40;;;16.50;99.90;;;;;;4903672;29;20185;-89
2021/08/09 05:15:26;;;;;;;7.90;6.35;;;;;;;;;;4902251;29;20181;-91
2021/08/09 05:17:52;;;;;;;9.70;6.22;;;;;;;;;;4902627;29;20229;-90
2021/08/09 05:20:18;;;;;;;10.30;6.50;;;;;;;;;;4901976;29;20209;-90
2021/08/09 05:22:44;;;;;;;12.25;6.45;;;;;;;;;;4901265;29;20231;-89
2021/08/09 05:25:10;;;;;;;8.40;6.35;;;16.70;99.90;;;;;;4902690;29;20655;-89
2021/08/09 05:27:38;;;;;;;8.38;6.10;;;16.80;99.90;;;;;;4901932;29;20197;-89
2021/08/09 05:30:04;;;;;;;8.32;6.32;;;;;;;;;;4902471;29;20213;-89
2021/08/09 05:32:35;;;;;;;8.98;7.30;;;16.80;99.90;;;;;;4901534;29;20192;-90
2021/08/09 05:35:10;;;;;;;9.98;6.22;;;16.80;99.90;;;;;;4902141;29;20206;-90
2021/08/09 05:37:39;;;;;;;8.50;5.75;;;;;;;;;;4903093;29;20533;-89
2021/08/09 05:40:07;;;;;;;7.53;5.60;;;;;;;;;;4917546;29;20677;-91
2021/08/09 05:42:34;;;;;;;8.70;6.00;;;;;;;;;;4901779;29;20221;-90
2021/08/09 05:45:40;;;;;;;9.70;5.78;;;16.90;99.90;;;;;;4919514;29;20653;-94
2021/08/09 05:48:06;;;;;;;8.77;5.97;;;;;;;;;;4913018;29;20203;-92
2021/08/09 05:50:37;;;;;;;6.18;5.20;;;;;;;;;;4933330;29;20211;-90
2021/08/09 05:57:26;;;;;;;6.70;5.38;;;17.10;99.90;;;;;;4808265;29;20616;-92
2021/08/09 06:00:45;;;;;;;7.93;5.93;;;17.00;99.90;;;;;;4790497;29;20232;-93
2021/08/09 06:04:13;;;;;;;;;;;;;;;;;;;;;
2021/08/09 06:07:50;;;;;;;;;;;;;;;;;;;;;
2021/08/09 06:10:56;;;;;;;;;;;;;;;;;;;;;
2021/08/09 06:17:25;;;;;;;;;;;;;;;;;;;;;
2021/08/09 06:20:28;;;;;;;6.57;5.78;;;17.60;99.90;;;;;;4791488;29;20240;-92
2021/08/09 06:28:59;;;;;;;5.00;4.50;;;;;;;;;;4884771;29;20203;-91
2021/08/09 06:31:37;;;;;;;5.32;4.70;;;;;;;;;;4884326;29;20260;-91
2021/08/09 06:34:03;;;;;;;4.70;4.15;;;;;;;;;;4886116;29;20197;-91
2021/08/09 06:47:07;;;;;;;4.68;4.18;;;;;;;;;;4856105;29;20286;-94
2021/08/09 06:53:15;;;;;;;5.13;4.47;;;;;;;;;;4863700;29;20194;-93
2021/08/09 07:01:06;;;;;;;4.68;4.22;;;;;;;;;;4945651;23;20287;-92
2021/08/09 07:03:35;;;;;;;4.68;3.63;;;;;;;;;;4904953;29;20224;-90
2021/08/09 07:06:05;;;;;;;5.13;4.00;;;;;;;;;;4934769;29;20247;-92
2021/08/09 07:08:33;;;;;;;4.05;3.28;;;;;;;;;;4915546;29;20181;-89
2021/08/09 07:11:00;;;;;;;5.68;3.83;;;;;;;;;;4901411;29;20702;-88
2021/08/09 07:13:31;;;;;;;5.22;3.70;;;;;;;;;;4917671;29;20183;-90
2021/08/09 07:15:57;;;;;;;9.02;4.25;;;;;;;;;;4900841;29;20191;-88
2021/08/09 07:18:23;;;;;;;3.75;3.45;;;;;;;;;;4884838;29;20195;-88
2021/08/09 07:20:49;;;;;;;6.65;3.85;;;;;;;;;;4917046;29;20491;-88
2021/08/09 07:23:16;;;;;;;6.32;3.92;;;;;;;;;;4900081;29;20239;-88
2021/08/09 07:25:42;;;;;;;6.20;4.43;;;;;;;;;;4902981;29;20185;-88
2021/08/09 07:28:08;;;;;;;3.85;3.47;;;;;;;;;;4900354;29;20251;-88
2021/08/09 07:30:34;;;;;;;7.13;3.75;;;;;;;;;;4918228;29;20224;-87
2021/08/09 07:33:00;;;;;;;9.30;4.53;;;;;;;;;;4907981;29;20187;-87
2021/08/09 07:35:43;;;;;;;6.43;3.53;;;;;;;;;;4910428;29;20209;-88
2021/08/09 07:38:09;;;;;;;6.07;3.80;;;;;;;;;;4881942;29;20196;-88
2021/08/09 07:40:36;;;;;;;4.78;3.70;;;;;;;;;;4904196;29;20233;-89
2021/08/09 07:43:02;;;;;;;3.75;3.35;;;;;;;;;;4883331;29;20188;-88
2021/08/09 07:45:29;;;;;;;3.97;3.55;;;;;;;;;;4882470;29;20667;-89
2021/08/09 07:47:55;;;;;;;10.07;4.60;;;;;;;;;;4881468;29;20189;-89
2021/08/09 07:50:24;;;;;;;5.97;3.90;;;;;;;;;;4881849;29;20189;-90
2021/08/09 07:52:50;;;;;;;5.88;3.28;;;20.40;99.90;;;;;;4879761;29;20280;-89
2021/08/09 07:55:17;;;;;;;5.43;3.25;;;;;;;;;;4867148;29;20189;-89
2021/08/09 07:57:43;;;;;;;5.88;3.72;;;;;;;;;;4898898;29;20188;-91
2021/08/09 08:00:11;;;;;;;6.07;2.97;;;20.70;99.90;;;;;;4879183;29;20246;-90
2021/08/09 08:02:37;;;;;;;4.13;2.92;;;;;;;;;;4879842;29;20184;-91
2021/08/09 08:05:06;;;;;;;3.20;2.60;;;;;;;;;;4878639;29;20192;-90
2021/08/09 08:07:32;;;;;;;2.70;2.50;;;;;;;;;;4880106;29;20186;-90
2021/08/09 08:10:02;;;;;;;4.47;2.95;;;;;;;;;;4878150;29;20190;-91
2021/08/09 08:12:28;;;;;;;3.67;2.42;;;;;;;;;;4889232;29;20208;-89
2021/08/09 08:14:55;;;;;;;2.30;2.10;;;;;;;;;;4916917;29;20925;-90
2021/08/09 08:17:23;;;;;;;2.30;2.10;;;;;;;;;;4916731;29;20258;-90
2021/08/09 08:19:49;;;;;;;4.15;2.83;;;;;;;;;;4917437;29;20211;-89
2021/08/09 08:22:15;;;;;;;3.25;2.45;;;;;;;;;;4917064;29;20192;-88
2021/08/09 08:24:41;;;;;;;2.65;2.00;;;;;;;;;;4918287;29;20240;-89
2021/08/09 08:27:07;;;;;;;3.75;2.20;;;;;;;;;;4910735;29;20212;-89
2021/08/09 08:29:34;;;;;;;2.53;2.10;;;;;;;;;;4911799;29;20188;-89
2021/08/09 08:32:00;;;;;;;3.80;2.38;;;;;;;;;;4900954;29;20181;-90
2021/08/09 08:34:30;;;;;;;4.13;2.28;;;21.60;99.90;;;;;;4906525;29;20188;-89
2021/08/09 08:36:56;;;;;;;2.95;2.28;;;;;;;;;;4900216;29;20267;-89
2021/08/09 08:39:22;;;;;;;3.08;2.03;;;;;;;;;;4882101;29;20586;-90
2021/08/09 08:41:48;;;;;;;5.22;2.15;;;;;;;;;;4896718;29;20216;-90
2021/08/09 08:44:19;;;;;;;4.75;2.63;;;21.60;99.90;;;;;;4909692;29;20212;-90
2021/08/09 08:46:45;;;;;;;3.53;1.83;;;;;;;;;;4921011;29;20181;-88
2021/08/09 08:49:15;;;;;;;3.72;1.80;;;21.60;99.90;;;;;;4917942;29;20193;-91
2021/08/09 08:51:45;;;;;;;2.05;1.85;;;21.60;99.90;;;;;;4892378;29;20179;-90
2021/08/09 08:54:12;;;;;;;6.43;3.33;;;;;;;;;;4897747;29;20193;-89
2021/08/09 08:56:40;;;;;;;3.53;2.17;;;21.80;99.90;;;;;;4897742;29;20185;-89
2021/08/09 08:59:07;;;;;;;4.70;2.08;;;;;;;;;;4903206;29;20757;-89
2021/08/09 09:01:41;;;;;;;2.85;1.85;;;22.40;99.90;;;;;;4918132;29;20185;-86
2021/08/09 09:04:23;;;;;;;3.03;2.08;;;22.30;99.90;;;;;;4900843;29;20185;-88
2021/08/09 09:06:55;;;;;;;6.93;1.95;;;22.40;99.90;;;;;;4901620;29;20526;-88
2021/08/09 09:09:24;;;;;;;3.25;1.58;;;22.20;99.90;;;;;;4903225;29;20272;-88
2021/08/09 09:11:50;;;;;;;2.83;1.88;;;22.70;99.90;;;;;;4889403;29;20187;-89
2021/08/09 09:14:26;;;;;;;2.33;1.73;;;22.70;99.90;;;;;;4890013;29;20226;-87
2021/08/09 09:16:52;;;;;;;6.18;2.25;;;;;;;;;;4908760;29;20180;-88
2021/08/09 09:19:38;;;;;;;1.65;1.55;;;22.50;99.90;;;;;;4914973;29;20227;-88
2021/08/09 09:22:07;;;;;;;2.83;2.13;;;22.90;99.90;;;;;;4925015;29;20191;-88
2021/08/09 09:24:33;;;;;;;5.63;2.00;;;22.90;99.90;;;;;;4914330;29;20553;-89
2021/08/09 09:27:02;;;;;;;2.25;1.90;;;22.90;99.90;;;;;;4913153;29;20280;-88
2021/08/09 09:29:34;;;;;;;3.08;2.20;;;23.10;99.90;;;;;;4922664;29;20658;-89
2021/08/09 09:32:16;;;;;;;2.45;2.00;;;23.30;99.90;;;;;;4901759;29;20199;-89
2021/08/09 09:34:50;;;;;;;3.45;2.05;;;23.60;99.90;;;;;;4919877;29;20184;-90
2021/08/09 09:37:35;;;;;;;7.97;4.05;;;23.30;99.90;;;;;;4902112;29;20216;-87
2021/08/09 09:40:11;;;;;;;4.32;2.00;;;23.80;99.90;;;;;;4920904;29;20208;-87
2021/08/09 09:42:41;;;;;;;3.35;2.45;;;23.80;99.90;;;;;;4887438;29;20289;-87
2021/08/09 09:45:27;;;;;;;2.38;1.75;;;23.80;99.90;;;;;;4887724;29;20188;-88
2021/08/09 09:48:05;;;;;;;5.57;1.67;;;24.10;99.90;;;;;;4917754;29;20704;-89
2021/08/09 09:50:32;;;;;;;2.05;1.85;;;23.70;99.90;;;;;;4905735;29;20193;-88
2021/08/09 09:53:19;;;;;;;4.32;1.63;;;23.60;99.90;;;;;;4906267;29;20189;-88
2021/08/09 09:55:49;;;;;;;2.58;1.70;;;23.70;99.90;;;;;;4927572;29;20216;-89
2021/08/09 09:58:16;;;;;;;5.88;1.77;;;23.70;99.90;;;;;;4920018;29;20188;-88
2021/08/09 10:00:42;;;;;;;4.32;1.60;;;;;;;;;;4920832;29;20827;-90
2021/08/09 10:03:10;;;;;;;1.42;1.33;;;24.10;99.90;;;;;;4906580;29;20200;-89
2021/08/09 10:05:39;;;;;;;4.05;1.70;;;23.80;99.90;;;;;;4918639;29;20188;-89
2021/08/09 10:08:11;;;;;;;3.20;2.00;;;24.50;99.90;;;;;;4909895;29;20310;-88
2021/08/09 10:10:39;;;;;;;2.85;1.58;;;;;;;;;;4910284;29;20179;-89
2021/08/09 10:13:05;;;;;;;3.20;1.77;;;23.70;99.90;;;;;;4914530;29;20177;-89
2021/08/09 10:15:31;;;;;;;1.90;1.70;;;23.60;99.90;;;;;;4895895;29;20650;-89
2021/08/09 10:17:58;;;;;;;5.55;1.95;;;23.60;99.90;;;;;;4908711;29;20290;-89
2021/08/09 10:20:24;;;;;;;2.78;1.90;;;;;;;;;;4914365;29;20287;-89
2021/08/09 10:23:05;;;;;;;4.13;1.42;;;24.50;99.90;;;;;;4890168;29;20273;-88
2021/08/09 10:25:50;;;;;;;5.82;1.30;;;23.80;99.90;;;;;;4903547;29;20176;-89
2021/08/09 10:28:19;;;;;;;1.88;1.50;;;24.20;99.90;;;;;;4902853;29;20250;-88
2021/08/09 10:30:45;;;;;;;4.43;1.70;;;;;;;;;;4910717;29;20177;-88
2021/08/09 10:33:11;;;;;;;2.28;1.50;;;;;;;;;;4923753;29;20188;-89
2021/08/09 10:35:47;;;;;;;1.60;1.50;;;24.20;99.90;;;;;;4945154;29;20197;-88
2021/08/09 10:38:18;;;;;;;2.38;1.50;;;24.30;99.90;;;;;;4945265;29;20267;-89
2021/08/09 10:41:08;;;;;;;2.05;1.23;;;24.40;99.90;;;;;;4946200;28;20203;-91
2021/08/09 10:43:44;;;;;;;2.03;1.30;;;24.60;99.90;;;;;;4923234;29;20255;-89
2021/08/09 10:46:44;;;;;;;1.50;1.40;;;24.90;99.90;;;;;;4908349;29;20241;-91
2021/08/09 10:49:30;;;;;;;4.20;1.60;;;25.10;99.90;;;;;;4936784;28;20180;-87
2021/08/09 10:51:56;;;;;;;2.10;1.30;;;;;;;;;;4934555;29;20204;-90
2021/08/09 10:54:35;;;;;;;4.63;1.67;;;24.70;99.90;;;;;;4938764;29;20220;-89
2021/08/09 10:57:03;;;;;;;2.80;1.73;;;25.90;99.90;;;;;;4924890;29;20192;-89
2021/08/09 10:59:45;;;;;;;1.83;1.30;;;25.40;99.90;;;;;;4923164;29;20251;-90
2021/08/09 11:02:22;;;;;;;1.95;1.42;;;24.80;99.90;;;;;;4907660;29;20224;-91
2021/08/09 11:05:19;;;;;;;3.38;1.67;;;25.20;99.90;;;;;;4935091;29;20184;-89
2021/08/09 11:07:46;;;;;;;3.67;1.52;;;25.80;99.90;;;;;;4917922;29;20208;-88
2021/08/09 11:10:12;;;;;;;2.45;1.40;;;;;;;;;;4900803;29;20200;-88
2021/08/09 11:13:01;;;;;;;2.25;1.40;;;25.50;99.90;;;;;;4901155;29;20208;-90
2021/08/09 11:15:28;;;;;;;2.80;1.33;;;25.10;99.90;;;;;;4907929;29;20224;-87
2021/08/09 11:17:56;;;;;;;2.90;1.20;;;25.20;99.90;;;;;;4900099;29;20189;-86
2021/08/09 11:20:33;;;;;;;3.85;1.33;;;25.30;99.90;;;;;;4917392;29;20236;-91
2021/08/09 11:23:09;;;;;;;2.40;1.40;;;24.90;99.90;;;;;;4916942;29;20207;-90
2021/08/09 11:25:35;;;;;;;1.80;1.40;;;;;;;;;;4900268;29;20188;-89
2021/08/09 11:28:01;;;;;;;2.25;1.60;;;;;;;;;;4899635;29;20239;-87
2021/08/09 11:30:40;;;;;;;4.97;1.77;;;25.70;99.90;;;;;;4900800;29;20223;-88
2021/08/09 11:33:08;;;;;;;4.13;1.70;;;;;;;;;;4916724;29;20240;-87
2021/08/09 11:35:44;;;;;;;3.47;2.00;;;25.70;99.90;;;;;;4885761;29;20263;-89
2021/08/09 11:38:11;;;;;;;3.05;1.60;;;;;;;;;;4900195;29;20195;-90
2021/08/09 11:40:44;;;;;;;1.90;1.42;;;25.90;99.90;;;;;;4885332;29;20219;-87
2021/08/09 11:43:13;;;;;;;2.25;1.40;;;25.80;99.90;;;;;;4900013;29;20215;-88
2021/08/09 11:45:39;;;;;;;2.38;1.65;;;;;;;;;;4900646;29;20176;-89
2021/08/09 11:48:12;;;;;;;5.45;2.00;;;25.60;99.90;;;;;;4901756;29;20198;-91
2021/08/09 11:50:40;;;;;;;1.98;1.67;;;25.40;99.90;;;;;;4900955;29;20226;-89
2021/08/09 11:53:09;;;;;;;4.63;1.55;;;25.30;99.90;;;;;;4904065;29;20192;-92
2021/08/09 11:55:38;;;;;;;2.38;1.70;;;25.10;99.90;;;;;;4898141;29;20231;-90
2021/08/09 11:58:04;;;;;;;3.25;2.00;;;;;;;;;;4906105;29;20189;-89
2021/08/09 12:00:41;;;;;;;2.83;1.55;;;25.40;99.90;;;;;;4904661;29;20689;-89
2021/08/09 12:03:08;;;;;;;3.45;1.45;;;;;;;;;;4887588;29;20275;-91
2021/08/09 12:05:34;;;;;;;3.50;1.60;;;;;;;;;;4899566;29;20646;-90
2021/08/09 12:08:04;;;;;;;2.20;1.70;;;;;;;;;;4886532;29;20195;-92
2021/08/09 12:10:30;;;;;;;3.50;1.60;;;;;;;;;;4908823;29;20287;-90
2021/08/09 12:12:56;;;;;;;3.80;1.65;;;;;;;;;;4900297;29;20320;-92
2021/08/09 12:15:23;;;;;;;1.35;1.25;;;;;;;;;;4900767;29;20184;-91
2021/08/09 12:18:09;;;;;;;1.50;1.40;;;26.20;99.90;;;;;;4911928;29;20270;-91
2021/08/09 12:20:35;;;;;;;4.97;2.00;;;;;;;;;;4885220;29;20215;-92
2021/08/09 12:23:01;;;;;;;5.38;1.60;;;;;;;;;;4896812;29;20586;-91
2021/08/09 12:25:36;;;;;;;4.38;1.90;;;25.60;99.90;;;;;;4900714;29;20192;-91
2021/08/09 12:28:05;;;;;;;1.92;1.50;;;26.10;99.90;;;;;;4915294;29;20731;-91
2021/08/09 12:30:31;;;;;;;2.35;1.40;;;;;;;;;;4904950;29;20195;-92
2021/08/09 12:33:00;;;;;;;5.05;1.70;;;26.00;99.90;;;;;;4885521;29;20196;-91
2021/08/09 12:35:39;;;;;;;3.45;1.40;;;25.70;99.90;;;;;;4900077;29;20205;-92
2021/08/09 12:38:06;;;;;;;2.53;1.70;;;25.50;99.90;;;;;;4902911;29;20183;-92
2021/08/09 12:40:50;;;;;;;3.60;2.22;;;25.30;99.90;;;;;;4897678;29;20208;-92
2021/08/09 12:43:19;;;;;;;3.00;1.50;;;25.30;99.90;;;;;;4903231;29;20188;-92
2021/08/09 12:45:47;;;;;;;1.83;1.27;;;25.50;99.90;;;;;;4901508;29;20192;-93
2021/08/09 12:48:13;;;;;;;2.03;1.30;;;;;;;;;;4897381;29;20237;-92
2021/08/09 12:50:40;;;;;;;2.40;1.70;;;26.10;99.90;;;;;;4894342;29;20192;-91
2021/08/09 12:53:15;;;;;;;2.78;1.10;;;25.90;99.90;;;;;;4917949;29;20267;-90
2021/08/09 12:55:41;;;;;;;2.58;1.67;;;;;;;;;;4883599;29;20279;-90
2021/08/09 12:58:08;;;;;;;4.90;1.35;;;;;;;;;;4899783;29;20697;-92
2021/08/09 13:00:34;;;;;;;1.98;1.20;;;;;;;;;;4900938;29;20231;-91
2021/08/09 13:03:00;;;;;;;1.25;1.10;;;;;;;;;;4887701;29;20248;-91
2021/08/09 13:05:27;;;;;;;3.17;1.27;;;;;;;;;;4894728;29;20197;-91
2021/08/09 13:07:53;;;;;;;2.00;1.33;;;;;;;;;;4907632;29;20224;-90
2021/08/09 13:10:19;;;;;;;2.88;1.50;;;;;;;;;;4915849;29;20653;-91
2021/08/09 13:12:48;;;;;;;1.83;1.20;;;;;;;;;;4902143;29;20188;-90
2021/08/09 13:15:14;;;;;;;5.07;1.50;;;;;;;;;;4905217;29;20188;-90
2021/08/09 13:17:46;;;;;;;2.53;1.20;;;26.90;98.60;;;;;;4887223;29;20206;-91
2021/08/09 13:20:15;;;;;;;2.50;1.13;;;;;;;;;;4887601;29;20224;-90
2021/08/09 13:22:41;;;;;;;2.25;1.20;;;;;;;;;;4904271;29;20680;-90
2021/08/09 13:25:07;;;;;;;1.50;0.70;;;;;;;;;;4901504;29;20232;-91
2021/08/09 13:27:34;;;;;;;1.52;1.20;;;;;;;;;;4893695;29;20207;-89
2021/08/09 13:30:04;;;;;;;2.17;1.17;;;26.90;99.10;;;;;;4920081;29;20654;-90
2021/08/09 13:32:30;;;;;;;1.23;1.08;;;26.80;99.20;;;;;;4903230;29;20195;-89
2021/08/09 13:34:56;;;;;;;2.20;1.30;;;;;;;;;;4900994;29;20191;-89
2021/08/09 13:37:22;;;;;;;2.70;1.05;;;;;;;;;;4911966;29;20210;-92
2021/08/09 13:39:51;;;;;;;1.92;1.20;;;;;;;;;;4912842;29;20229;-90
2021/08/09 13:42:23;;;;;;;1.98;1.20;;;26.90;99.20;;;;;;4924594;29;20185;-90
2021/08/09 13:44:49;;;;;;;2.30;1.00;;;;;;;;;;4905518;29;20192;-90
2021/08/09 13:47:24;;;;;;;2.47;1.10;;;;;;;;;;4903217;29;20180;-93
2021/08/09 13:49:50;;;;;;;1.17;1.02;;;;;;;;;;4898446;29;20625;-92
2021/08/09 13:52:16;;;;;;;3.00;0.98;;;;;;;;;;4892428;29;20638;-93
2021/08/09 13:54:47;;;;;;;1.35;1.02;;;26.90;98.40;;;;;;4904684;29;20687;-91
2021/08/09 13:57:13;;;;;;;1.70;1.30;;;;;;;;;;4904541;29;20188;-93
2021/08/09 13:59:39;;;;;;;1.98;0.98;;;;;;;;;;4902384;29;20755;-92
2021/08/09 14:02:05;;;;;;;4.63;1.65;;;;;;;;;;4904834;29;20650;-93
2021/08/09 14:04:34;;;;;;;4.55;1.10;;;27.20;95.20;;;;;;4901816;29;20184;-92
2021/08/09 14:07:00;;;;;;;3.05;0.90;;;;;;;;;;4886574;29;20650;-90
2021/08/09 14:09:26;;;;;;;2.72;1.17;;;;;;;;;;4900129;29;20588;-91
2021/08/09 14:11:52;;;;;;;1.50;0.98;;;;;;;;;;4899545;29;20527;-91
2021/08/09 14:14:18;;;;;;;1.15;1.05;;;;;;;;;;4899725;29;20207;-90
2021/08/09 14:16:44;;;;;;;1.30;0.85;;;;;;;;;;4898458;29;20185;-92
2021/08/09 14:19:10;;;;;;;3.03;1.08;;;;;;;;;;4916536;29;20690;-93
2021/08/09 14:21:36;;;;;;;2.58;0.85;;;;;;;;;;4902033;29;20301;-90
2021/08/09 14:24:02;;;;;;;2.30;0.95;;;;;;;;;;4885772;29;20285;-91
2021/08/09 14:26:31;;;;;;;1.38;1.00;;;27.60;94.30;;;;;;4888687;29;20201;-92
2021/08/09 14:29:00;;;;;;;1.55;1.13;;;27.20;93.00;;;;;;4918936;29;20199;-91
2021/08/09 14:31:27;;;;;;;5.85;0.98;;;27.20;92.00;;;;;;4921942;29;20787;-93
2021/08/09 14:33:53;;;;;;;6.03;0.88;;;;;;;;;;4919501;29;20246;-92
2021/08/09 14:36:20;;;;;;;1.17;0.85;;;;;;;;;;4904471;29;20505;-92
2021/08/09 14:38:46;;;;;;;1.50;1.05;;;;;;;;;;4904783;29;20204;-91
2021/08/09 14:41:13;;;;;;;3.42;1.38;;;;;;;;;;4915962;29;20216;-91
2021/08/09 14:43:39;;;;;;;1.30;0.90;;;;;;;;;;4899590;29;20722;-91
2021/08/09 14:46:05;;;;;;;0.90;0.70;;;;;;;;;;4888546;29;20252;-90
2021/08/09 14:48:31;;;;;;;0.80;0.80;;;;;;;;;;4931743;29;20197;-92
2021/08/09 14:50:57;;;;;;;2.58;0.88;;;;;;;;;;4916485;29;20192;-91
2021/08/09 14:53:23;;;;;;;4.75;1.10;;;;;;;;;;4904926;29;20243;-90